Time;durP1;ratioP1;P1;durP2;ratioP2;P2;SDS_P1;SDS_P2;PMS_P1;PMS_P2;Temp;Humidity;BMP_temperature;BMP_pressure;BME280_temperature;BME280_humidity;BME280_pressure;Samples;Min_cycle;Max_cycle;Signal;HPM_P1;HPM_P2
2021/11/29 00:02:02;;;;;;;25.85;10.55;;;;;;;9.15;92.42;98557.13;5016543;28;20425;-76
2021/11/29 00:04:47;;;;;;;28.40;11.20;;;;;;;9.13;92.18;98567.56;5014879;28;20045;-76
2021/11/29 00:07:32;;;;;;;26.13;9.88;;;;;;;9.12;92.32;98567.91;4994223;28;20428;-77
2021/11/29 00:10:18;;;;;;;21.27;8.43;;;;;;;9.15;92.35;98575.31;4997725;28;20053;-77
2021/11/29 00:13:04;;;;;;;29.70;13.02;;;;;;;9.19;93.07;98578.91;4997067;28;20053;-77
2021/11/29 00:15:49;;;;;;;9.23;5.55;;;;;;;9.08;92.07;98584.13;5011924;28;20129;-77
2021/11/29 00:18:34;;;;;;;18.85;8.45;;;;;;;9.02;90.10;98601.81;5007926;23;20053;-59
2021/11/29 00:21:19;;;;;;;28.55;11.30;;;;;;;9.01;89.89;98595.59;4972211;28;20416;-59
2021/11/29 00:24:05;;;;;;;11.73;5.38;;;;;;;8.97;89.45;98599.38;4975949;28;20062;-59
2021/11/29 00:26:50;;;;;;;24.83;10.07;;;;;;;8.96;88.26;98595.09;4975296;28;20046;-59
2021/11/29 00:29:35;;;;;;;10.23;5.43;;;;;;;8.94;88.19;98594.66;4967662;28;20050;-59
2021/11/29 00:32:20;;;;;;;6.63;3.53;;;;;;;8.97;88.82;98600.16;4974311;28;20045;-59
2021/11/29 00:35:05;;;;;;;14.32;6.80;;;;;;;8.94;87.40;98600.88;4975446;28;20061;-59
2021/11/29 00:37:50;;;;;;;22.75;8.60;;;;;;;8.91;86.99;98608.94;4973664;28;20066;-60
2021/11/29 00:40:37;;;;;;;17.15;6.38;;;;;;;8.84;84.44;98601.44;4977604;28;20058;-59
2021/11/29 00:43:22;;;;;;;15.35;6.80;;;;;;;8.81;84.33;98606.78;4956484;28;20062;-60
2021/11/29 00:46:07;;;;;;;;;;;;;;;8.83;84.09;98623.50;4958227;28;20424;-59
2021/11/29 00:48:52;;;;;;;15.07;7.55;;;;;;;8.73;83.14;98621.31;4978415;28;20387;-59
2021/11/29 00:51:37;;;;;;;15.50;7.45;;;;;;;8.67;81.81;98623.53;4975590;28;20065;-59
2021/11/29 00:54:22;;;;;;;16.85;8.63;;;;;;;8.67;82.31;98628.16;4972765;28;20550;-59
2021/11/29 00:57:07;;;;;;;18.42;8.77;;;;;;;8.56;80.04;98634.13;4975302;28;20054;-59
2021/11/29 00:59:51;;;;;;;14.68;8.48;;;;;;;8.58;81.82;98641.91;4975803;28;20058;-59
2021/11/29 01:02:36;;;;;;;15.80;7.80;;;;;;;8.55;81.74;98653.44;4970452;28;20054;-60
2021/11/29 01:05:22;;;;;;;19.77;9.07;;;;;;;8.60;83.76;98661.28;4965415;28;20046;-60
2021/11/29 01:08:07;;;;;;;18.67;10.82;;;;;;;8.57;83.70;98668.22;4972751;28;20416;-60
2021/11/29 01:10:52;;;;;;;16.10;7.93;;;;;;;8.45;79.67;98660.16;4974187;28;20069;-59
2021/11/29 01:13:38;;;;;;;13.27;7.40;;;;;;;8.52;82.48;98659.56;4970796;28;20049;-59
2021/11/29 01:16:23;;;;;;;18.02;10.55;;;;;;;8.45;80.02;98660.16;4969011;28;20070;-59
2021/11/29 01:19:07;;;;;;;14.68;8.02;;;;;;;8.37;77.23;98655.72;4972005;28;20412;-59
2021/11/29 01:21:52;;;;;;;13.45;7.43;;;;;;;8.37;78.08;98658.44;4976702;28;20143;-59
2021/11/29 01:24:38;;;;;;;13.43;8.25;;;;;;;8.35;77.11;98666.13;4979877;28;20049;-59
2021/11/29 01:27:22;;;;;;;16.13;8.40;;;;;;;8.35;77.68;98676.94;4959031;28;20136;-59
2021/11/29 01:30:09;;;;;;;;;;;;;;;8.34;78.24;98674.59;4975339;28;20061;-59
2021/11/29 01:32:54;;;;;;;16.40;9.02;;;;;;;8.37;81.32;98688.22;4970875;28;20279;-59
2021/11/29 01:35:39;;;;;;;16.38;8.23;;;;;;;8.31;80.13;98678.78;4977771;28;20059;-59
2021/11/29 01:38:24;;;;;;;13.15;7.53;;;;;;;8.28;79.12;98682.16;4976662;28;20058;-59
2021/11/29 01:41:10;;;;;;;13.40;7.75;;;;;;;8.21;75.94;98689.31;4979950;28;20054;-60
2021/11/29 01:43:55;;;;;;;20.20;10.48;;;;;;;8.20;76.48;98696.66;4978162;28;20061;-60
2021/11/29 01:46:43;;;;;;;13.40;7.90;;;;;;;8.14;75.09;98687.22;4975561;28;20061;-60
2021/11/29 01:49:27;;;;;;;19.60;9.88;;;;;;;8.18;77.55;98698.91;4971055;28;20065;-60
2021/11/29 01:52:12;;;;;;;18.58;9.32;;;;;;;8.13;75.26;98696.47;4978185;28;20070;-60
2021/11/29 01:54:57;;;;;;;11.25;6.45;;;;;;;8.15;75.20;98702.31;4976276;28;20054;-60
2021/11/29 01:57:42;;;;;;;11.80;6.97;;;;;;;8.05;74.28;98703.63;4976972;28;20058;-60
2021/11/29 02:00:29;;;;;;;12.68;6.00;;;;;;;7.77;71.53;98699.41;4978474;28;20046;-60
2021/11/29 02:03:16;;;;;;;16.92;8.55;;;;;;;7.96;83.46;98708.44;4976561;28;20053;-60
2021/11/29 02:06:01;;;;;;;17.13;9.55;;;;;;;7.89;82.68;98708.22;4979951;28;20408;-60
2021/11/29 02:08:46;;;;;;;13.63;6.70;;;;;;;7.79;79.08;98708.72;4978624;28;20443;-60
2021/11/29 02:11:31;;;;;;;12.15;7.03;;;;;;;7.85;80.03;98711.97;4969100;28;20066;-60
2021/11/29 02:14:16;;;;;;;12.77;7.10;;;;;;;7.89;80.97;98712.84;4980040;28;20066;-60
2021/11/29 02:17:01;;;;;;;;;;;;;;;7.92;81.48;98707.56;4978769;28;20057;-60
2021/11/29 02:19:47;;;;;;;12.80;6.28;;;;;;;7.93;81.04;98716.44;4982261;28;19909;-60
2021/11/29 02:22:33;;;;;;;16.50;8.50;;;;;;;7.98;82.50;98727.78;4979715;28;20538;-60
2021/11/29 02:25:19;;;;;;;18.05;6.93;;;;;;;8.00;83.06;98716.63;4978709;28;20050;-60
2021/11/29 02:28:04;;;;;;;19.70;8.10;;;;;;;8.01;84.11;98719.00;4972256;28;20047;-60
2021/11/29 02:30:49;;;;;;;10.43;5.25;;;;;;;8.01;84.22;98720.91;4980149;28;20054;-60
2021/11/29 02:33:34;;;;;;;13.35;7.53;;;;;;;7.98;83.53;98721.59;4963496;28;20042;-60
2021/11/29 02:36:19;;;;;;;16.63;7.65;;;;;;;7.88;79.05;98722.09;4972807;28;20062;-60
2021/11/29 02:39:07;;;;;;;11.55;6.85;;;;;;;7.84;76.50;98726.63;4977002;28;20041;-60
2021/11/29 02:41:54;;;;;;;18.50;7.18;;;;;;;7.94;80.91;98735.03;4975210;28;20049;-60
2021/11/29 02:44:41;;;;;;;14.23;7.88;;;;;;;7.91;78.07;98733.03;4976420;28;20049;-60
2021/11/29 02:47:26;;;;;;;11.57;6.95;;;;;;;7.89;77.74;98737.19;4976625;28;20058;-59
2021/11/29 02:50:11;;;;;;;11.20;6.35;;;;;;;7.76;75.67;98730.28;4977564;28;20050;-59
2021/11/29 02:52:55;;;;;;;15.63;5.68;;;;;;;7.79;77.69;98745.81;4976611;28;20157;-59
2021/11/29 02:55:40;;;;;;;16.92;7.13;;;;;;;7.84;80.14;98743.66;4974273;28;20546;-59
2021/11/29 02:58:25;;;;;;;11.10;7.22;;;;;;;7.84;79.94;98748.28;4978616;28;20123;-59
2021/11/29 03:01:10;;;;;;;11.50;5.25;;;;;;;7.94;83.47;98742.38;4976609;28;20050;-59
2021/11/29 03:03:55;;;;;;;10.18;6.15;;;;;;;7.96;85.35;98740.91;4974746;28;20066;-60
2021/11/29 03:06:40;;;;;;;9.23;5.03;;;;;;;7.98;86.44;98745.94;4978297;28;20054;-60
2021/11/29 03:09:26;;;;;;;11.43;7.57;;;;;;;7.95;85.83;98757.47;4976702;28;20074;-59
2021/11/29 03:12:11;;;;;;;14.18;8.15;;;;;;;7.89;84.28;98758.84;4974139;28;20066;-59
2021/11/29 03:14:56;;;;;;;10.32;6.00;;;;;;;7.88;82.44;98755.34;4959317;28;20535;-59
2021/11/29 03:17:42;;;;;;;;;;;;;;;7.93;83.23;98774.06;4965050;28;20066;-59
2021/11/29 03:20:26;;;;;;;10.80;6.23;;;;;;;7.95;84.63;98760.19;4974884;28;19914;-59
2021/11/29 03:23:12;;;;;;;10.85;5.95;;;;;;;7.86;82.54;98778.50;4973444;28;20297;-59
2021/11/29 03:25:58;;;;;;;11.18;5.88;;;;;;;7.87;82.05;98774.66;4979094;28;20448;-59
2021/11/29 03:28:45;;;;;;;14.32;8.40;;;;;;;7.93;84.27;98790.28;4969985;28;20094;-59
2021/11/29 03:31:32;;;;;;;16.75;8.32;;;;;;;7.86;81.12;98783.91;4969398;28;20053;-59
2021/11/29 03:34:19;;;;;;;18.77;8.00;;;;;;;7.60;74.30;98792.44;4978841;28;20046;-59
2021/11/29 03:37:04;;;;;;;15.73;8.05;;;;;;;7.63;74.91;98780.94;4968747;28;20058;-59
2021/11/29 03:39:49;;;;;;;11.77;5.45;;;;;;;7.78;80.41;98796.44;4974261;28;20065;-60
2021/11/29 03:42:34;;;;;;;10.73;7.03;;;;;;;7.79;80.60;98792.59;4973522;28;20070;-59
2021/11/29 03:45:19;;;;;;;8.10;5.15;;;;;;;7.81;81.11;98792.25;4977199;28;20054;-60
2021/11/29 03:48:04;;;;;;;11.05;5.07;;;;;;;7.84;81.93;98778.03;4969795;28;20054;-59
2021/11/29 03:50:49;;;;;;;10.52;4.38;;;;;;;7.86;82.51;98781.19;4972003;28;20057;-59
2021/11/29 03:53:34;;;;;;;11.55;5.90;;;;;;;7.85;82.84;98793.16;4972105;28;20062;-59
2021/11/29 03:56:19;;;;;;;9.38;6.05;;;;;;;7.82;80.20;98799.25;4975190;28;20054;-59
2021/11/29 03:59:05;;;;;;;14.35;8.18;;;;;;;7.83;80.04;98798.91;4973786;28;20723;-59
2021/11/29 04:01:50;;;;;;;13.85;7.53;;;;;;;7.84;80.84;98796.97;4977309;28;20057;-59
2021/11/29 04:04:35;;;;;;;10.15;4.82;;;;;;;7.88;82.20;98792.44;4982651;28;20049;-59
2021/11/29 04:07:21;;;;;;;8.48;4.40;;;;;;;7.94;84.72;98791.88;4972604;28;20057;-59
2021/11/29 04:10:06;;;;;;;7.47;4.47;;;;;;;7.95;85.37;98795.38;4980019;28;20046;-59
2021/11/29 04:12:51;;;;;;;10.15;5.85;;;;;;;7.93;84.54;98808.44;4972231;28;20057;-59
2021/11/29 04:15:36;;;;;;;11.57;6.10;;;;;;;7.89;83.93;98810.25;4979270;28;20516;-59
2021/11/29 04:18:21;;;;;;;12.05;6.00;;;;;;;7.85;82.52;98821.00;4972727;28;20050;-59
2021/11/29 04:21:05;;;;;;;10.48;5.10;;;;;;;7.88;82.28;98824.91;4975628;28;20054;-59
2021/11/29 04:23:50;;;;;;;14.68;6.20;;;;;;;7.85;80.82;98825.63;4973902;28;20065;-59
2021/11/29 04:26:37;;;;;;;10.07;4.25;;;;;;;7.93;83.40;98824.69;4977033;28;20058;-59
2021/11/29 04:29:26;;;;;;;12.52;5.45;;;;;;;7.99;86.01;98826.81;4979504;28;20718;-59
2021/11/29 04:32:11;;;;;;;9.55;5.00;;;;;;;8.05;88.12;98819.22;4973680;28;20408;-59
2021/11/29 04:34:56;;;;;;;7.25;3.60;;;;;;;8.04;88.92;98823.06;4958201;28;20050;-59
2021/11/29 04:37:40;;;;;;;10.38;6.70;;;;;;;7.98;88.32;98825.22;4955143;28;20524;-59
2021/11/29 04:40:25;;;;;;;13.70;7.03;;;;;;;7.96;87.64;98842.94;4969245;28;20070;-59
2021/11/29 04:43:10;;;;;;;9.05;6.10;;;;;;;7.93;86.95;98843.63;4973086;28;20397;-59
2021/11/29 04:45:56;;;;;;;10.13;6.05;;;;;;;7.92;85.68;98847.47;4975853;28;20050;-59
2021/11/29 04:48:41;;;;;;;13.57;8.27;;;;;;;7.91;85.20;98852.09;4973818;28;20054;-59
2021/11/29 04:51:26;;;;;;;9.02;5.28;;;;;;;7.90;84.25;98845.09;4977481;28;20054;-59
2021/11/29 04:54:11;;;;;;;9.25;4.32;;;;;;;7.93;84.36;98849.81;4967258;28;20050;-59
2021/11/29 04:56:56;;;;;;;10.90;6.47;;;;;;;7.92;83.97;98847.47;4973910;28;20054;-59
2021/11/29 04:59:41;;;;;;;10.23;6.13;;;;;;;7.87;82.47;98862.03;4977894;28;20062;-59
2021/11/29 05:02:26;;;;;;;7.88;3.60;;;;;;;7.92;83.37;98858.31;4979532;28;20054;-59
2021/11/29 05:05:11;;;;;;;7.40;3.97;;;;;;;7.98;85.70;98867.72;4959945;28;20050;-59
2021/11/29 05:07:56;;;;;;;5.72;3.70;;;;;;;8.00;86.99;98873.59;4972759;28;20062;-59
2021/11/29 05:10:41;;;;;;;;;;;;;;;7.96;86.81;98875.44;4976017;28;20047;-59
2021/11/29 05:13:26;;;;;;;12.90;7.35;;;;;;;7.89;85.42;98886.81;4967253;28;19915;-59
2021/11/29 05:16:11;;;;;;;13.27;7.22;;;;;;;7.85;83.38;98890.56;4977140;28;20131;-59
2021/11/29 05:18:56;;;;;;;9.57;6.03;;;;;;;7.87;82.88;98885.59;4973460;28;20050;-59
2021/11/29 05:21:41;;;;;;;11.82;7.30;;;;;;;7.85;82.95;98895.97;4974178;28;20054;-59
2021/11/29 05:24:26;;;;;;;11.68;7.10;;;;;;;7.84;81.27;98903.28;4978010;28;20073;-59
2021/11/29 05:27:11;;;;;;;11.10;6.60;;;;;;;7.86;80.89;98905.66;4975193;28;20530;-59
2021/11/29 05:29:56;;;;;;;11.13;6.10;;;;;;;7.81;78.49;98901.28;4974786;28;20050;-59
2021/11/29 05:32:41;;;;;;;8.57;5.20;;;;;;;7.82;79.00;98908.28;4972350;28;20932;-59
2021/11/29 05:35:26;;;;;;;12.25;5.97;;;;;;;7.81;79.52;98919.44;4976245;28;20523;-59
2021/11/29 05:38:11;;;;;;;9.98;6.25;;;;;;;7.82;80.13;98929.13;4955403;28;20440;-59
2021/11/29 05:40:56;;;;;;;11.35;5.93;;;;;;;7.79;79.72;98940.63;4973804;28;20051;-59
2021/11/29 05:43:41;;;;;;;9.77;6.28;;;;;;;7.77;79.49;98932.88;4976795;28;20050;-59
2021/11/29 05:46:26;;;;;;;9.38;4.97;;;;;;;7.76;78.84;98952.13;4974622;28;20058;-59
2021/11/29 05:49:11;;;;;;;11.15;6.00;;;;;;;7.77;79.36;98948.31;4972325;28;20519;-59
2021/11/29 05:51:57;;;;;;;10.00;7.57;;;;;;;7.69;76.74;98950.78;4975995;28;20511;-59
2021/11/29 05:54:42;;;;;;;14.02;8.45;;;;;;;7.71;77.70;98961.25;4974362;28;20050;-59
2021/11/29 05:57:28;;;;;;;10.85;7.32;;;;;;;7.66;76.37;98967.69;4973026;28;20058;-59
2021/11/29 06:00:15;;;;;;;10.35;5.82;;;;;;;7.68;77.26;98973.53;4976287;28;20050;-59
2021/11/29 06:03:00;;;;;;;9.75;6.13;;;;;;;7.73;79.66;98969.81;4975422;28;20050;-59
2021/11/29 06:05:45;;;;;;;6.57;3.38;;;;;;;7.79;82.26;98973.09;4976202;28;20538;-59
2021/11/29 06:08:30;;;;;;;6.78;4.00;;;;;;;7.80;83.39;98974.66;4980343;28;20122;-59
2021/11/29 06:11:14;;;;;;;14.95;9.38;;;;;;;7.78;82.29;98982.31;4980352;28;20045;-59
2021/11/29 06:13:59;;;;;;;26.05;11.55;;;;;;;7.71;80.96;98977.50;4976786;28;20050;-59
2021/11/29 06:16:44;;;;;;;12.48;7.70;;;;;;;7.67;79.39;98993.59;4979316;28;20058;-59
2021/11/29 06:19:29;;;;;;;9.82;6.00;;;;;;;7.67;78.99;98999.00;5008523;23;20062;-75
2021/11/29 06:22:13;;;;;;;13.55;8.85;;;;;;;7.67;79.06;98998.22;4991807;28;20041;-75
2021/11/29 06:24:58;;;;;;;9.23;4.32;;;;;;;7.72;81.18;99015.00;4997244;28;20053;-75
2021/11/29 06:27:43;;;;;;;18.05;5.93;;;;;;;7.77;82.87;99024.84;4991717;28;20555;-75
2021/11/29 06:30:28;;;;;;;9.82;6.20;;;;;;;7.72;82.37;99028.53;4996956;28;20057;-75
2021/11/29 06:33:13;;;;;;;15.63;6.32;;;;;;;7.72;82.66;99033.16;4992691;28;20045;-76
2021/11/29 06:35:59;;;;;;;16.37;6.77;;;;;;;7.77;84.14;99041.09;4996321;28;20050;-75
2021/11/29 06:38:46;;;;;;;13.93;7.97;;;;;;;7.75;84.20;99043.31;4997420;28;20053;-76
2021/11/29 06:41:31;;;;;;;15.32;6.68;;;;;;;7.72;83.89;99050.19;4992186;28;20077;-75
2021/11/29 06:44:16;;;;;;;29.25;10.20;;;;;;;7.78;85.94;99058.88;4979232;28;20045;-75
2021/11/29 06:47:02;;;;;;;49.08;13.18;;;;;;;7.79;85.88;99067.78;4974857;28;20258;-76
2021/11/29 06:49:47;;;;;;;93.75;24.63;;;;;;;7.81;87.18;99070.94;4995995;28;20069;-75
2021/11/29 06:52:31;;;;;;;;;;;;;;;7.83;88.02;99076.81;5004523;28;20061;-76
2021/11/29 06:55:19;;;;;;;100.93;27.50;;;;;;;7.82;88.21;99083.38;5011365;28;19921;-76
2021/11/29 06:58:04;;;;;;;113.85;28.17;;;;;;;7.76;87.46;99095.53;5016106;28;20041;-76
2021/11/29 07:00:49;;;;;;;56.35;18.70;;;;;;;7.67;87.34;99101.00;5007574;28;20501;-75
2021/11/29 07:03:35;;;;;;;105.05;26.48;;;;;;;7.68;87.00;99108.81;4987447;28;20057;-75
2021/11/29 07:06:20;;;;;;;117.80;32.25;;;;;;;7.74;88.13;99112.88;4985285;28;20049;-76
2021/11/29 07:09:05;;;;;;;99.93;28.05;;;;;;;7.72;88.66;99119.72;4987687;28;20039;-76
2021/11/29 07:11:50;;;;;;;;;;;;;;;7.74;88.83;99122.91;4997194;28;20045;-76
2021/11/29 07:14:36;;;;;;;91.78;27.42;;;;;;;7.67;88.65;99118.03;4999406;28;19917;-75
2021/11/29 07:17:21;;;;;;;111.15;29.50;;;;;;;7.68;88.65;99121.53;4988061;28;20077;-76
2021/11/29 07:20:08;;;;;;;97.10;31.30;;;;;;;7.62;87.97;99122.88;4982296;28;20047;-76
2021/11/29 07:22:52;;;;;;;35.97;16.10;;;;;;;7.30;79.47;99129.88;4995408;28;20524;-76
2021/11/29 07:25:37;;;;;;;22.02;11.27;;;;;;;7.16;72.18;99119.31;4995734;28;20053;-75
2021/11/29 07:28:22;;;;;;;25.48;12.25;;;;;;;7.12;68.53;99133.84;4975116;28;20049;-76
2021/11/29 07:31:07;;;;;;;13.95;8.70;;;;;;;6.87;69.15;99136.41;4979066;28;20046;-75
2021/11/29 07:33:52;;;;;;;14.38;8.85;;;;;;;6.74;70.05;99140.19;4980614;28;20069;-76
2021/11/29 07:36:37;;;;;;;15.13;9.07;;;;;;;6.63;70.46;99144.38;4987585;28;20058;-76
2021/11/29 07:39:22;;;;;;;14.32;8.25;;;;;;;6.60;69.52;99150.44;4983110;28;20268;-76
2021/11/29 07:42:07;;;;;;;23.80;10.63;;;;;;;6.66;72.71;99159.91;4993221;28;20057;-76
2021/11/29 07:44:54;;;;;;;19.58;9.23;;;;;;;6.52;72.44;99164.78;4991297;28;20744;-77
2021/11/29 07:47:41;;;;;;;24.75;14.35;;;;;;;6.49;73.08;99165.44;4998155;28;20057;-76
2021/11/29 07:50:26;;;;;;;36.63;15.32;;;;;;;6.47;72.09;99164.97;4991742;28;20539;-75
2021/11/29 07:53:11;;;;;;;26.77;14.23;;;;;;;6.48;73.88;99166.53;4994141;28;20053;-75
2021/11/29 07:55:56;;;;;;;18.63;11.10;;;;;;;6.51;74.83;99165.88;4998356;28;20439;-76
2021/11/29 07:58:42;;;;;;;23.15;13.00;;;;;;;6.51;73.98;99168.59;4995858;28;20061;-75
2021/11/29 08:01:26;;;;;;;16.70;9.93;;;;;;;6.52;73.74;99180.97;4993639;28;20057;-75
2021/11/29 08:04:10;;;;;;;29.38;12.85;;;;;;;6.58;75.65;99182.38;4984808;28;20061;-75
2021/11/29 08:06:55;;;;;;;57.13;19.05;;;;;;;6.83;81.77;99180.63;4990515;28;20050;-77
2021/11/29 08:09:40;;;;;;;68.75;21.15;;;;;;;7.03;84.99;99193.38;4992779;28;20528;-76
2021/11/29 08:12:24;;;;;;;40.47;14.70;;;;;;;7.33;88.14;99188.69;4993176;28;20045;-80
2021/11/29 08:15:09;;;;;;;26.20;14.90;;;;;;;6.00;76.96;99186.56;4993658;28;20058;-78
2021/11/29 08:17:55;;;;;;;25.00;12.88;;;;;;;5.54;77.10;99186.47;4987994;28;20520;-78
2021/11/29 08:20:40;;;;;;;26.65;13.93;;;;;;;5.67;77.82;99193.63;4992648;28;20049;-77
2021/11/29 08:23:25;;;;;;;19.83;10.85;;;;;;;5.51;79.62;99195.22;4996874;28;20045;-77
2021/11/29 08:26:10;;;;;;;16.95;9.50;;;;;;;5.63;80.38;99186.50;4994299;28;20054;-77
2021/11/29 08:28:55;;;;;;;18.13;9.30;;;;;;;6.03;80.71;99195.94;4992880;28;20045;-77
2021/11/29 08:31:40;;;;;;;17.05;9.85;;;;;;;6.00;78.93;99205.47;4996973;28;20052;-79
2021/11/29 08:34:25;;;;;;;14.02;8.20;;;;;;;6.05;78.55;99201.78;4995438;28;20049;-77
2021/11/29 08:37:11;;;;;;;18.60;8.63;;;;;;;6.06;78.66;99199.91;4993355;28;20169;-77
2021/11/29 08:39:55;;;;;;;21.42;11.65;;;;;;;6.31;78.22;99207.09;4997335;28;20049;-78
2021/11/29 08:42:40;;;;;;;17.23;9.05;;;;;;;6.25;78.01;99211.09;4995666;28;20062;-78
2021/11/29 08:45:26;;;;;;;13.32;7.43;;;;;;;6.13;77.66;99221.78;4993323;28;20045;-81
2021/11/29 08:48:12;;;;;;;24.90;11.23;;;;;;;6.07;77.51;99223.88;4992636;28;20054;-78
2021/11/29 08:50:56;;;;;;;18.27;9.05;;;;;;;6.36;77.58;99225.81;4994370;28;20520;-78
2021/11/29 08:53:41;;;;;;;17.00;8.27;;;;;;;6.24;77.84;99223.03;4983785;28;20069;-77
2021/11/29 08:56:26;;;;;;;18.88;9.80;;;;;;;6.03;76.70;99232.94;4992124;28;20054;-77
2021/11/29 08:59:10;;;;;;;15.70;8.10;;;;;;;6.18;78.00;99232.41;4990803;28;20065;-78
2021/11/29 09:01:56;;;;;;;14.30;8.18;;;;;;;6.06;76.62;99241.16;4990838;28;20045;-77
2021/11/29 09:04:41;;;;;;;15.90;8.85;;;;;;;6.01;76.29;99249.44;4998661;28;20417;-77
2021/11/29 09:07:26;;;;;;;13.45;5.85;;;;;;;6.12;77.94;99255.28;4987185;28;20053;-78
2021/11/29 09:10:12;;;;;;;26.40;10.52;;;;;;;7.03;80.59;99260.94;4992801;28;20061;-76
2021/11/29 09:12:57;;;;;;;17.63;8.40;;;;;;;7.29;77.36;99261.56;4989251;28;20050;-75
2021/11/29 09:15:44;;;;;;;15.32;8.35;;;;;;;7.43;76.18;99274.81;4992380;28;20525;-75
2021/11/29 09:18:29;;;;;;;15.50;8.95;;;;;;;7.59;75.34;99269.63;4980973;28;20049;-75
2021/11/29 09:21:16;;;;;;;9.38;5.10;;;;;;;6.67;71.29;99280.34;4990613;28;20073;-76
2021/11/29 09:24:02;;;;;;;12.38;5.72;;;;;;;6.31;72.48;99283.47;4979896;28;20066;-76
2021/11/29 09:26:47;;;;;;;8.65;5.10;;;;;;;6.13;71.87;99275.75;4992371;28;20057;-78
2021/11/29 09:29:32;;;;;;;9.38;5.90;;;;;;;6.17;72.89;99274.00;4988700;28;20081;-76
2021/11/29 09:32:16;;;;;;;7.43;4.88;;;;;;;6.09;72.27;99278.31;4980834;28;20053;-77
2021/11/29 09:35:02;;;;;;;9.45;5.93;;;;;;;6.10;72.79;99276.38;4993995;28;20428;-77
2021/11/29 09:37:48;;;;;;;;;;;;;;;6.16;73.16;99280.50;4979682;28;20061;-77
2021/11/29 09:40:37;;;;;;;6.40;3.55;;;;;;;6.14;72.61;99272.75;4995889;28;20087;-77
2021/11/29 09:43:22;;;;;;;9.98;5.22;;;;;;;6.05;72.34;99269.25;4987777;28;20049;-77
2021/11/29 09:46:08;;;;;;;8.98;5.40;;;;;;;6.17;72.55;99282.09;4990113;28;20049;-77
2021/11/29 09:48:54;;;;;;;10.65;5.47;;;;;;;6.39;72.11;99287.28;4992721;28;20069;-77
2021/11/29 09:51:39;;;;;;;9.75;6.00;;;;;;;6.29;71.91;99288.44;4994654;28;20041;-77
2021/11/29 09:54:24;;;;;;;10.93;5.13;;;;;;;6.52;71.45;99282.78;4997490;28;20057;-78
2021/11/29 09:57:09;;;;;;;8.27;4.88;;;;;;;6.87;70.90;99284.22;4995628;28;20049;-77
2021/11/29 09:59:54;;;;;;;7.32;4.72;;;;;;;7.05;69.65;99287.66;4999706;28;20069;-77
2021/11/29 10:02:40;;;;;;;7.30;4.80;;;;;;;7.42;69.09;99281.34;4997598;28;20070;-77
2021/11/29 10:05:25;;;;;;;5.63;3.47;;;;;;;7.83;67.46;99287.88;4995192;28;20421;-77
2021/11/29 10:08:18;;;;;;;10.65;6.55;;;;;;;8.29;66.45;99290.28;4989987;28;20053;-77
2021/11/29 10:11:07;;;;;;;16.30;4.93;;;;;;;8.45;65.62;99285.84;4995274;28;20073;-77
2021/11/29 10:14:02;;;;;;;8.35;4.00;;;;;;;8.36;64.58;99290.56;4987578;28;20062;-77
2021/11/29 10:16:47;;;;;;;4.50;2.90;;;;;;;8.15;63.63;99289.81;4998281;28;20053;-77
2021/11/29 10:19:35;;;;;;;13.23;6.28;;;;;;;8.19;63.71;99290.72;4992730;28;20053;-77
2021/11/29 10:22:22;;;;;;;9.10;3.70;;;;;;;7.66;64.36;99286.13;4975366;28;20069;-78
2021/11/29 10:25:18;;;;;;;7.43;4.15;;;;;;;7.41;65.19;99287.91;4983427;28;20050;-78
2021/11/29 10:28:03;;;;;;;6.75;3.45;;;;;;;6.69;66.33;99288.94;4993286;28;20053;-78
2021/11/29 10:31:07;;;;;;;8.23;4.13;;;;;;;6.58;67.93;99297.69;4992018;28;20049;-77
2021/11/29 10:33:54;;;;;;;9.77;5.07;;;;;;;6.65;68.23;99298.00;4974412;28;20065;-78
2021/11/29 10:36:47;;;;;;;7.90;4.47;;;;;;;6.67;68.77;99295.75;4975613;28;20449;-77
2021/11/29 10:39:37;;;;;;;16.70;5.13;;;;;;;6.81;68.99;99296.31;4975557;28;20070;-76
2021/11/29 10:42:26;;;;;;;10.63;4.40;;;;;;;6.93;68.13;99301.84;4977362;28;20062;-78
2021/11/29 10:45:23;;;;;;;8.18;4.43;;;;;;;7.08;67.67;99295.09;4977002;28;20041;-78
2021/11/29 10:48:24;;;;;;;9.25;4.80;;;;;;;7.19;66.75;99296.31;4979554;28;20049;-78
2021/11/29 10:51:13;;;;;;;13.07;4.85;;;;;;;7.29;67.26;99295.91;4976677;28;20050;-77
2021/11/29 10:54:04;;;;;;;10.43;5.07;;;;;;;7.38;65.16;99296.66;4980365;28;20053;-77
2021/11/29 10:56:50;;;;;;;10.93;3.80;;;;;;;7.24;64.63;99299.59;4978344;28;20406;-78
2021/11/29 10:59:37;;;;;;;6.97;4.18;;;;;;;7.38;63.47;99293.94;4975143;28;20045;-77
2021/11/29 11:02:32;;;;;;;10.02;3.60;;;;;;;7.37;60.55;99300.47;4989735;28;20065;-76
2021/11/29 11:05:16;;;;;;;6.55;3.10;;;;;;;7.48;59.66;99285.44;5000401;28;20033;-76
2021/11/29 11:08:09;;;;;;;12.85;3.42;;;;;;;7.60;60.11;99284.72;5015077;28;20528;-76
2021/11/29 11:10:53;;;;;;;7.97;4.13;;;;;;;7.60;59.30;99285.53;5007027;28;20045;-76
2021/11/29 11:14:01;;;;;;;13.17;3.93;;;;;;;7.70;59.47;99285.13;4977569;28;20069;-76
2021/11/29 11:16:50;;;;;;;8.40;3.83;;;;;;;7.80;60.59;99277.72;4974805;28;20665;-76
2021/11/29 11:19:41;;;;;;;12.52;4.68;;;;;;;7.86;61.56;99284.50;4974599;28;20053;-75
2021/11/29 11:22:29;;;;;;;8.43;4.10;;;;;;;7.80;60.29;99283.94;4979366;28;20046;-76
2021/11/29 11:25:18;;;;;;;13.60;5.15;;;;;;;7.83;61.05;99293.28;5013006;28;20053;-76
2021/11/29 11:28:09;;;;;;;8.43;4.32;;;;;;;7.90;61.57;99298.97;5016765;28;20053;-76
2021/11/29 11:30:54;;;;;;;8.57;4.20;;;;;;;7.97;61.24;99291.09;5012976;28;20082;-76
2021/11/29 11:33:56;;;;;;;5.60;2.80;;;;;;;7.98;58.68;99289.97;5018445;28;20053;-75
2021/11/29 11:36:40;;;;;;;7.28;3.90;;;;;;;7.92;58.23;99291.31;5015678;28;20045;-76
2021/11/29 11:39:26;;;;;;;7.57;2.95;;;;;;;8.06;58.07;99289.91;5013711;28;20052;-76
2021/11/29 11:42:11;;;;;;;9.57;4.05;;;;;;;8.14;59.97;99288.22;5017354;28;20049;-76
2021/11/29 11:44:56;;;;;;;4.97;3.03;;;;;;;8.11;60.33;99288.91;5015926;28;20073;-76
2021/11/29 11:47:43;;;;;;;12.88;4.60;;;;;;;8.15;60.08;99297.94;5013887;28;20056;-76
2021/11/29 11:50:33;;;;;;;8.18;4.05;;;;;;;8.22;58.79;99292.78;5017452;28;20045;-76
2021/11/29 11:53:18;;;;;;;11.23;5.05;;;;;;;8.27;60.34;99291.75;4994339;28;20527;-76
2021/11/29 11:56:03;;;;;;;12.23;4.25;;;;;;;8.29;58.39;99292.22;4998560;28;20114;-77
2021/11/29 11:58:55;;;;;;;10.27;3.58;;;;;;;8.26;56.97;99298.31;4999283;28;20057;-76
2021/11/29 12:01:44;;;;;;;13.88;3.72;;;;;;;8.29;57.09;99301.13;4989605;28;20045;-76
2021/11/29 12:04:29;;;;;;;6.90;3.22;;;;;;;8.45;58.20;99304.03;4993428;28;20054;-76
2021/11/29 12:07:14;;;;;;;8.73;4.15;;;;;;;8.42;56.27;99302.78;4997401;28;20519;-76
2021/11/29 12:10:27;;;;;;;9.27;5.15;;;;;;;8.46;57.46;99303.69;4995800;28;20609;-76
2021/11/29 12:13:17;;;;;;;12.75;4.55;;;;;;;8.49;57.76;99302.22;4998149;28;20049;-76
2021/11/29 12:16:02;;;;;;;17.33;5.00;;;;;;;8.54;57.39;99300.09;4995932;28;20049;-77
2021/11/29 12:18:47;;;;;;;5.07;3.17;;;;;;;8.47;55.95;99304.47;5004484;23;20050;-75
2021/11/29 12:21:38;;;;;;;7.35;3.70;;;;;;;8.54;55.83;99308.22;4975390;28;20049;-75
2021/11/29 12:24:27;;;;;;;12.68;5.90;;;;;;;8.56;56.64;99313.31;4987126;28;20046;-76
2021/11/29 12:27:13;;;;;;;11.85;5.15;;;;;;;8.54;56.72;99312.84;4979832;28;20046;-76
2021/11/29 12:29:58;;;;;;;11.48;4.90;;;;;;;8.58;56.82;99306.41;4972328;28;20057;-77
2021/11/29 12:33:02;;;;;;;8.35;3.88;;;;;;;8.66;56.89;99307.44;4973876;28;20050;-74
2021/11/29 12:35:58;;;;;;;21.33;4.80;;;;;;;8.74;56.03;99319.28;4974058;28;20054;-76
2021/11/29 12:38:48;;;;;;;10.38;4.90;;;;;;;8.80;57.23;99312.53;4972772;28;20425;-76
2021/11/29 12:41:36;;;;;;;9.88;4.55;;;;;;;8.85;55.06;99317.72;4976699;28;20046;-77
2021/11/29 12:44:47;;;;;;;7.78;4.28;;;;;;;8.92;55.27;99313.34;4963832;28;20049;-76
2021/11/29 12:47:43;;;;;;;8.80;4.35;;;;;;;9.01;54.02;99319.44;4956874;28;20050;-75
2021/11/29 12:50:33;;;;;;;11.75;5.45;;;;;;;9.08;53.36;99315.38;4963492;28;20050;-77
2021/11/29 12:53:21;;;;;;;9.90;3.10;;;;;;;9.07;52.71;99322.72;4975510;28;20060;-76
2021/11/29 12:56:06;;;;;;;8.32;3.10;;;;;;;9.11;52.87;99323.63;4979712;28;20050;-76
2021/11/29 12:58:57;;;;;;;24.85;5.53;;;;;;;9.37;51.81;99334.13;4978477;28;20046;-76
2021/11/29 13:01:42;;;;;;;17.33;5.32;;;;;;;9.61;49.38;99325.94;4977218;28;20065;-76
2021/11/29 13:04:26;;;;;;;7.95;3.47;;;;;;;10.03;49.08;99331.81;4970071;28;20070;-75
2021/11/29 13:07:11;;;;;;;7.03;3.05;;;;;;;10.46;47.42;99341.19;4981823;28;20062;-76